sensor_id;sensor_type;location;lat;lon;timestamp;temperature;humidity
27368;DHT22;14839;48.106;11.618;2023-11-19T05:02:34;8.70;94.60
27368;DHT22;14839;48.106;11.618;2023-11-19T05:05:01;8.90;94.60
27368;DHT22;14839;48.106;11.618;2023-11-19T05:07:29;9.10;94.60
27368;DHT22;14839;48.106;11.618;2023-11-19T05:09:54;9.30;94.60
27368;DHT22;14839;48.106;11.618;2023-11-19T05:12:20;9.50;94.60
27368;DHT22;14839;48.106;11.618;2023-11-19T05:14:45;9.70;94.60
27368;DHT22;14839;48.106;11.618;2023-11-19T05:17:15;9.80;94.60
27368;DHT22;14839;48.106;11.618;2023-11-19T05:19:40;9.90;94.60
27368;DHT22;14839;48.106;11.618;2023-11-19T05:22:06;10.00;94.60
27368;DHT22;14839;48.106;11.618;2023-11-19T05:24:33;10.00;94.60
27368;DHT22;14839;48.106;11.618;2023-11-19T05:26:58;10.10;94.60
27368;DHT22;14839;48.106;11.618;2023-11-19T05:29:24;10.10;94.60
27368;DHT22;14839;48.106;11.618;2023-11-19T05:31:49;10.20;94.60
27368;DHT22;14839;48.106;11.618;2023-11-19T05:34:15;10.20;94.60
27368;DHT22;14839;48.106;11.618;2023-11-19T05:36:41;10.30;94.60
27368;DHT22;14839;48.106;11.618;2023-11-19T05:39:06;10.20;94.60
27368;DHT22;14839;48.106;11.618;2023-11-19T05:41:32;10.30;94.60
27368;DHT22;14839;48.106;11.618;2023-11-19T05:43:57;10.30;94.60
27368;DHT22;14839;48.106;11.618;2023-11-19T05:46:23;10.30;94.60
27368;DHT22;14839;48.106;11.618;2023-11-19T05:48:50;10.30;94.60
27368;DHT22;14839;48.106;11.618;2023-11-19T05:51:16;10.30;94.60
27368;DHT22;14839;48.106;11.618;2023-11-19T05:53:42;10.30;94.60
27368;DHT22;14839;48.106;11.618;2023-11-19T05:56:09;10.40;94.60
27368;DHT22;14839;48.106;11.618;2023-11-19T05:58:35;10.40;94.60
27368;DHT22;14839;48.106;11.618;2023-11-19T06:01:01;10.40;94.60
27368;DHT22;14839;48.106;11.618;2023-11-19T06:03:28;10.40;94.60
27368;DHT22;14839;48.106;11.618;2023-11-19T06:05:54;10.40;94.60
27368;DHT22;14839;48.106;11.618;2023-11-19T06:08:20;10.40;94.60
27368;DHT22;14839;48.106;11.618;2023-11-19T06:10:46;10.40;94.60
27368;DHT22;14839;48.106;11.618;2023-11-19T06:13:12;10.40;94.60
27368;DHT22;14839;48.106;11.618;2023-11-19T06:15:43;10.40;94.60
27368;DHT22;14839;48.106;11.618;2023-11-19T06:18:09;10.40;94.60
27368;DHT22;14839;48.106;11.618;2023-11-19T06:20:36;10.40;94.60
27368;DHT22;14839;48.106;11.618;2023-11-19T06:23:02;10.40;94.60
27368;DHT22;14839;48.106;11.618;2023-11-19T06:25:28;10.50;94.60
27368;DHT22;14839;48.106;11.618;2023-11-19T06:27:53;10.50;94.60
27368;DHT22;14839;48.106;11.618;2023-11-19T06:30:19;10.50;94.60
27368;DHT22;14839;48.106;11.618;2023-11-19T06:32:45;10.50;94.60
27368;DHT22;14839;48.106;11.618;2023-11-19T06:35:11;10.60;94.60
27368;DHT22;14839;48.106;11.618;2023-11-19T06:37:40;10.50;94.60
27368;DHT22;14839;48.106;11.618;2023-11-19T06:40:07;10.60;94.60
27368;DHT22;14839;48.106;11.618;2023-11-19T06:42:34;10.60;94.60
27368;DHT22;14839;48.106;11.618;2023-11-19T06:45:00;10.60;94.60
27368;DHT22;14839;48.106;11.618;2023-11-19T06:47:26;10.60;94.60
27368;DHT22;14839;48.106;11.618;2023-11-19T06:49:53;10.60;94.60
27368;DHT22;14839;48.106;11.618;2023-11-19T06:52:18;10.70;94.60
27368;DHT22;14839;48.106;11.618;2023-11-19T06:54:44;10.60;94.60
27368;DHT22;14839;48.106;11.618;2023-11-19T06:57:11;10.70;94.60
27368;DHT22;14839;48.106;11.618;2023-11-19T06:59:37;10.70;94.60
27368;DHT22;14839;48.106;11.618;2023-11-19T07:02:03;10.70;94.60
27368;DHT22;14839;48.106;11.618;2023-11-19T07:04:30;10.80;94.60
27368;DHT22;14839;48.106;11.618;2023-11-19T07:06:55;10.80;94.60
27368;DHT22;14839;48.106;11.618;2023-11-19T07:09:21;10.80;94.60
27368;DHT22;14839;48.106;11.618;2023-11-19T07:11:48;10.80;94.60
27368;DHT22;14839;48.106;11.618;2023-11-19T07:14:15;10.80;94.60
27368;DHT22;14839;48.106;11.618;2023-11-19T07:16:41;10.90;94.60
27368;DHT22;14839;48.106;11.618;2023-11-19T07:19:08;10.90;94.60
27368;DHT22;14839;48.106;11.618;2023-11-19T07:21:33;10.90;94.60
27368;DHT22;14839;48.106;11.618;2023-11-19T07:23:59;10.90;94.60
27368;DHT22;14839;48.106;11.618;2023-11-19T07:26:25;10.90;94.60
27368;DHT22;14839;48.106;11.618;2023-11-19T07:28:51;10.90;94.60
27368;DHT22;14839;48.106;11.618;2023-11-19T07:31:17;11.00;94.60
27368;DHT22;14839;48.106;11.618;2023-11-19T07:33:45;11.00;94.60
27368;DHT22;14839;48.106;11.618;2023-11-19T07:36:11;11.00;94.60
27368;DHT22;14839;48.106;11.618;2023-11-19T07:38:37;11.10;94.60
27368;DHT22;14839;48.106;11.618;2023-11-19T07:41:04;11.10;94.60
27368;DHT22;14839;48.106;11.618;2023-11-19T07:43:30;11.10;94.60
27368;DHT22;14839;48.106;11.618;2023-11-19T07:45:56;11.20;94.60
27368;DHT22;14839;48.106;11.618;2023-11-19T07:48:24;11.20;94.60
27368;DHT22;14839;48.106;11.618;2023-11-19T07:50:50;11.30;94.60
27368;DHT22;14839;48.106;11.618;2023-11-19T07:53:16;11.30;94.60
27368;DHT22;14839;48.106;11.618;2023-11-19T07:55:42;11.30;94.60
27368;DHT22;14839;48.106;11.618;2023-11-19T07:58:07;11.30;94.60
27368;DHT22;14839;48.106;11.618;2023-11-19T08:00:33;11.30;94.60
27368;DHT22;14839;48.106;11.618;2023-11-19T08:02:58;11.30;94.60
27368;DHT22;14839;48.106;11.618;2023-11-19T08:05:24;11.30;94.60
27368;DHT22;14839;48.106;11.618;2023-11-19T08:07:52;11.40;94.60
27368;DHT22;14839;48.106;11.618;2023-11-19T08:10:20;11.30;94.60
27368;DHT22;14839;48.106;11.618;2023-11-19T08:12:46;11.40;94.60
27368;DHT22;14839;48.106;11.618;2023-11-19T08:15:12;11.40;94.60
27368;DHT22;14839;48.106;11.618;2023-11-19T08:17:38;11.40;94.60
27368;DHT22;14839;48.106;11.618;2023-11-19T08:20:04;11.40;94.60
27368;DHT22;14839;48.106;11.618;2023-11-19T08:22:30;11.50;94.60
27368;DHT22;14839;48.106;11.618;2023-11-19T08:24:56;11.50;94.60
27368;DHT22;14839;48.106;11.618;2023-11-19T08:27:22;11.50;94.60
27368;DHT22;14839;48.106;11.618;2023-11-19T08:29:55;11.60;94.60
27368;DHT22;14839;48.106;11.618;2023-11-19T08:32:27;11.60;94.60
27368;DHT22;14839;48.106;11.618;2023-11-19T08:34:53;11.70;94.60
27368;DHT22;14839;48.106;11.618;2023-11-19T08:37:18;11.70;94.60
27368;DHT22;14839;48.106;11.618;2023-11-19T08:39:50;11.80;94.60
27368;DHT22;14839;48.106;11.618;2023-11-19T08:42:18;11.80;94.60
27368;DHT22;14839;48.106;11.618;2023-11-19T08:44:49;11.80;94.60
27368;DHT22;14839;48.106;11.618;2023-11-19T08:47:18;11.80;94.60
27368;DHT22;14839;48.106;11.618;2023-11-19T08:49:44;11.90;94.60
27368;DHT22;14839;48.106;11.618;2023-11-19T08:52:10;11.90;94.60
27368;DHT22;14839;48.106;11.618;2023-11-19T08:54:36;12.00;94.60
27368;DHT22;14839;48.106;11.618;2023-11-19T08:57:03;12.00;94.60
27368;DHT22;14839;48.106;11.618;2023-11-19T08:59:29;12.10;94.60
27368;DHT22;14839;48.106;11.618;2023-11-19T09:01:54;12.10;94.60
27368;DHT22;14839;48.106;11.618;2023-11-19T09:04:20;12.20;94.60
27368;DHT22;14839;48.106;11.618;2023-11-19T09:06:48;12.20;94.60
27368;DHT22;14839;48.106;11.618;2023-11-19T09:09:13;12.20;94.60
27368;DHT22;14839;48.106;11.618;2023-11-19T09:11:39;12.20;94.60
27368;DHT22;14839;48.106;11.618;2023-11-19T09:14:05;12.20;94.60
27368;DHT22;14839;48.106;11.618;2023-11-19T09:16:30;12.10;94.60
27368;DHT22;14839;48.106;11.618;2023-11-19T09:18:56;12.20;94.60
27368;DHT22;14839;48.106;11.618;2023-11-19T09:21:23;12.10;94.60
27368;DHT22;14839;48.106;11.618;2023-11-19T09:23:49;12.10;94.60
27368;DHT22;14839;48.106;11.618;2023-11-19T09:26:14;12.20;94.60
27368;DHT22;14839;48.106;11.618;2023-11-19T09:28:40;12.20;94.60
27368;DHT22;14839;48.106;11.618;2023-11-19T09:31:18;12.20;94.60
27368;DHT22;14839;48.106;11.618;2023-11-19T09:33:44;12.30;94.60
27368;DHT22;14839;48.106;11.618;2023-11-19T09:36:12;12.30;94.60
27368;DHT22;14839;48.106;11.618;2023-11-19T09:38:39;12.30;94.60
27368;DHT22;14839;48.106;11.618;2023-11-19T09:41:05;12.40;94.60
27368;DHT22;14839;48.106;11.618;2023-11-19T09:43:35;12.40;94.60
27368;DHT22;14839;48.106;11.618;2023-11-19T09:46:05;12.50;94.60
27368;DHT22;14839;48.106;11.618;2023-11-19T09:48:36;12.50;94.60
27368;DHT22;14839;48.106;11.618;2023-11-19T09:51:02;12.60;94.60
27368;DHT22;14839;48.106;11.618;2023-11-19T09:53:28;12.50;94.60
27368;DHT22;14839;48.106;11.618;2023-11-19T09:55:55;12.50;94.60
27368;DHT22;14839;48.106;11.618;2023-11-19T09:58:21;12.60;94.60
27368;DHT22;14839;48.106;11.618;2023-11-19T10:00:48;12.70;94.60
27368;DHT22;14839;48.106;11.618;2023-11-19T10:03:14;12.70;94.60
27368;DHT22;14839;48.106;11.618;2023-11-19T10:05:39;12.80;94.60
27368;DHT22;14839;48.106;11.618;2023-11-19T10:08:06;12.80;94.60
27368;DHT22;14839;48.106;11.618;2023-11-19T10:10:33;12.90;94.60
27368;DHT22;14839;48.106;11.618;2023-11-19T10:13:00;13.00;94.60
27368;DHT22;14839;48.106;11.618;2023-11-19T10:15:26;13.20;94.60
27368;DHT22;14839;48.106;11.618;2023-11-19T10:17:55;13.30;94.60
27368;DHT22;14839;48.106;11.618;2023-11-19T10:20:22;13.30;94.60
27368;DHT22;14839;48.106;11.618;2023-11-19T10:22:47;13.40;94.60
27368;DHT22;14839;48.106;11.618;2023-11-19T10:25:23;13.50;94.60
27368;DHT22;14839;48.106;11.618;2023-11-19T10:27:50;13.40;94.60
27368;DHT22;14839;48.106;11.618;2023-11-19T10:33:17;13.40;94.60
27368;DHT22;14839;48.106;11.618;2023-11-19T10:38:20;13.90;94.60
27368;DHT22;14839;48.106;11.618;2023-11-19T10:40:46;14.10;94.60
27368;DHT22;14839;48.106;11.618;2023-11-19T10:43:12;14.20;94.60
27368;DHT22;14839;48.106;11.618;2023-11-19T10:45:39;14.20;94.60
27368;DHT22;14839;48.106;11.618;2023-11-19T10:48:06;14.40;94.60
27368;DHT22;14839;48.106;11.618;2023-11-19T10:50:36;14.60;94.60
27368;DHT22;14839;48.106;11.618;2023-11-19T10:53:04;14.90;94.60
27368;DHT22;14839;48.106;11.618;2023-11-19T10:55:31;15.10;94.60
27368;DHT22;14839;48.106;11.618;2023-11-19T10:58:02;15.30;94.60
27368;DHT22;14839;48.106;11.618;2023-11-19T11:00:30;15.20;94.60
27368;DHT22;14839;48.106;11.618;2023-11-19T11:03:02;15.20;94.60
27368;DHT22;14839;48.106;11.618;2023-11-19T11:05:32;14.90;94.60
27368;DHT22;14839;48.106;11.618;2023-11-19T11:08:01;14.90;94.60
27368;DHT22;14839;48.106;11.618;2023-11-19T11:10:28;14.70;94.60
27368;DHT22;14839;48.106;11.618;2023-11-19T11:12:59;14.50;94.60
27368;DHT22;14839;48.106;11.618;2023-11-19T11:15:29;14.40;94.60
27368;DHT22;14839;48.106;11.618;2023-11-19T11:17:59;14.30;94.60
27368;DHT22;14839;48.106;11.618;2023-11-19T11:20:32;14.30;94.60
27368;DHT22;14839;48.106;11.618;2023-11-19T11:28:26;14.40;94.60
27368;DHT22;14839;48.106;11.618;2023-11-19T11:31:04;14.40;94.60
27368;DHT22;14839;48.106;11.618;2023-11-19T11:36:19;14.60;94.60
27368;DHT22;14839;48.106;11.618;2023-11-19T11:38:48;14.60;94.60
27368;DHT22;14839;48.106;11.618;2023-11-19T11:41:21;14.60;94.60
27368;DHT22;14839;48.106;11.618;2023-11-19T11:43:49;14.70;94.60
27368;DHT22;14839;48.106;11.618;2023-11-19T11:49:03;14.80;94.60
27368;DHT22;14839;48.106;11.618;2023-11-19T11:57:10;15.10;94.60
27368;DHT22;14839;48.106;11.618;2023-11-19T11:59:46;15.30;94.60
27368;DHT22;14839;48.106;11.618;2023-11-19T12:02:19;15.50;94.60
27368;DHT22;14839;48.106;11.618;2023-11-19T12:04:48;15.60;94.60
27368;DHT22;14839;48.106;11.618;2023-11-19T12:07:19;15.50;94.60
27368;DHT22;14839;48.106;11.618;2023-11-19T12:09:52;15.40;94.60
27368;DHT22;14839;48.106;11.618;2023-11-19T12:12:23;15.40;94.60
27368;DHT22;14839;48.106;11.618;2023-11-19T12:15:10;15.40;94.60
27368;DHT22;14839;48.106;11.618;2023-11-19T12:17:44;15.50;94.60
27368;DHT22;14839;48.106;11.618;2023-11-19T12:20:12;15.60;94.60
27368;DHT22;14839;48.106;11.618;2023-11-19T12:22:39;15.60;94.60
27368;DHT22;14839;48.106;11.618;2023-11-19T12:25:06;15.70;94.60
27368;DHT22;14839;48.106;11.618;2023-11-19T12:27:33;15.70;94.50
27368;DHT22;14839;48.106;11.618;2023-11-19T12:30:02;15.70;94.20
27368;DHT22;14839;48.106;11.618;2023-11-19T12:32:38;15.70;94.00
27368;DHT22;14839;48.106;11.618;2023-11-19T12:35:04;15.60;94.30
27368;DHT22;14839;48.106;11.618;2023-11-19T12:37:30;15.50;94.30
27368;DHT22;14839;48.106;11.618;2023-11-19T12:39:57;15.20;94.50
27368;DHT22;14839;48.106;11.618;2023-11-19T12:45:12;14.80;94.30
27368;DHT22;14839;48.106;11.618;2023-11-19T12:47:39;14.80;94.60
27368;DHT22;14839;48.106;11.618;2023-11-19T12:50:09;14.80;94.60
27368;DHT22;14839;48.106;11.618;2023-11-19T12:52:36;14.90;94.30
27368;DHT22;14839;48.106;11.618;2023-11-19T12:55:03;14.90;94.40
27368;DHT22;14839;48.106;11.618;2023-11-19T12:57:37;15.00;94.60
27368;DHT22;14839;48.106;11.618;2023-11-19T13:00:03;15.10;94.60
27368;DHT22;14839;48.106;11.618;2023-11-19T13:02:48;15.10;94.10
27368;DHT22;14839;48.106;11.618;2023-11-19T13:05:25;15.10;94.30
27368;DHT22;14839;48.106;11.618;2023-11-19T13:08:03;15.10;94.10
27368;DHT22;14839;48.106;11.618;2023-11-19T13:10:34;15.30;94.00
27368;DHT22;14839;48.106;11.618;2023-11-19T13:13:09;15.00;93.80
27368;DHT22;14839;48.106;11.618;2023-11-19T13:15:35;14.90;94.60
27368;DHT22;14839;48.106;11.618;2023-11-19T13:18:01;15.00;94.60
27368;DHT22;14839;48.106;11.618;2023-11-19T13:20:28;15.00;94.60
27368;DHT22;14839;48.106;11.618;2023-11-19T13:23:01;14.90;94.50
27368;DHT22;14839;48.106;11.618;2023-11-19T13:25:27;14.80;94.60
27368;DHT22;14839;48.106;11.618;2023-11-19T13:27:54;14.70;94.60
27368;DHT22;14839;48.106;11.618;2023-11-19T13:30:20;14.60;94.60
27368;DHT22;14839;48.106;11.618;2023-11-19T13:32:48;14.50;94.60
27368;DHT22;14839;48.106;11.618;2023-11-19T13:35:13;14.50;94.60
27368;DHT22;14839;48.106;11.618;2023-11-19T13:37:39;14.60;94.60
27368;DHT22;14839;48.106;11.618;2023-11-19T13:40:07;14.70;94.60
27368;DHT22;14839;48.106;11.618;2023-11-19T13:42:33;14.70;94.60
27368;DHT22;14839;48.106;11.618;2023-11-19T13:44:58;14.70;94.60
27368;DHT22;14839;48.106;11.618;2023-11-19T13:47:24;14.60;94.60
27368;DHT22;14839;48.106;11.618;2023-11-19T13:49:50;14.50;94.60
27368;DHT22;14839;48.106;11.618;2023-11-19T13:52:15;14.50;94.60
27368;DHT22;14839;48.106;11.618;2023-11-19T13:54:41;14.40;94.60
27368;DHT22;14839;48.106;11.618;2023-11-19T13:57:07;14.40;94.60
27368;DHT22;14839;48.106;11.618;2023-11-19T13:59:33;14.40;94.60
27368;DHT22;14839;48.106;11.618;2023-11-19T14:01:58;14.30;94.60
27368;DHT22;14839;48.106;11.618;2023-11-19T14:04:24;14.30;94.60
27368;DHT22;14839;48.106;11.618;2023-11-19T14:06:50;14.20;94.60
27368;DHT22;14839;48.106;11.618;2023-11-19T14:09:16;14.20;94.60
27368;DHT22;14839;48.106;11.618;2023-11-19T14:11:43;14.20;94.60
27368;DHT22;14839;48.106;11.618;2023-11-19T14:14:09;14.20;94.60
27368;DHT22;14839;48.106;11.618;2023-11-19T14:16:34;14.20;94.60
27368;DHT22;14839;48.106;11.618;2023-11-19T14:19:00;14.10;94.60
27368;DHT22;14839;48.106;11.618;2023-11-19T14:21:26;14.10;94.60
27368;DHT22;14839;48.106;11.618;2023-11-19T14:23:53;14.10;94.60
27368;DHT22;14839;48.106;11.618;2023-11-19T14:26:18;14.20;94.60
27368;DHT22;14839;48.106;11.618;2023-11-19T14:28:44;14.20;94.60
27368;DHT22;14839;48.106;11.618;2023-11-19T14:31:09;14.20;94.60
27368;DHT22;14839;48.106;11.618;2023-11-19T14:33:35;14.20;94.60
27368;DHT22;14839;48.106;11.618;2023-11-19T14:36:03;14.20;94.60
27368;DHT22;14839;48.106;11.618;2023-11-19T14:38:29;14.10;94.60
27368;DHT22;14839;48.106;11.618;2023-11-19T14:40:55;14.10;94.60
27368;DHT22;14839;48.106;11.618;2023-11-19T14:43:21;14.10;94.60
27368;DHT22;14839;48.106;11.618;2023-11-19T14:45:46;14.20;94.60
27368;DHT22;14839;48.106;11.618;2023-11-19T14:48:12;14.10;94.60
27368;DHT22;14839;48.106;11.618;2023-11-19T14:50:37;14.20;94.60
27368;DHT22;14839;48.106;11.618;2023-11-19T14:53:03;14.10;94.60
27368;DHT22;14839;48.106;11.618;2023-11-19T14:55:28;14.20;94.60
27368;DHT22;14839;48.106;11.618;2023-11-19T14:57:54;14.10;94.60
27368;DHT22;14839;48.106;11.618;2023-11-19T15:00:20;14.10;94.60
27368;DHT22;14839;48.106;11.618;2023-11-19T15:02:46;13.90;94.60
27368;DHT22;14839;48.106;11.618;2023-11-19T15:05:12;13.80;94.60
27368;DHT22;14839;48.106;11.618;2023-11-19T15:07:38;13.80;94.60
27368;DHT22;14839;48.106;11.618;2023-11-19T15:10:05;13.70;94.60
27368;DHT22;14839;48.106;11.618;2023-11-19T15:12:38;13.60;94.60
27368;DHT22;14839;48.106;11.618;2023-11-19T15:15:08;13.40;94.60
27368;DHT22;14839;48.106;11.618;2023-11-19T15:17:40;13.40;94.60
27368;DHT22;14839;48.106;11.618;2023-11-19T15:20:06;13.20;94.60
27368;DHT22;14839;48.106;11.618;2023-11-19T15:22:32;13.20;94.60
27368;DHT22;14839;48.106;11.618;2023-11-19T15:24:57;13.10;94.60
27368;DHT22;14839;48.106;11.618;2023-11-19T15:27:23;13.10;94.60
27368;DHT22;14839;48.106;11.618;2023-11-19T15:29:48;13.00;94.60
27368;DHT22;14839;48.106;11.618;2023-11-19T15:32:14;12.90;94.60
27368;DHT22;14839;48.106;11.618;2023-11-19T15:34:40;12.90;94.60
27368;DHT22;14839;48.106;11.618;2023-11-19T15:37:07;12.90;94.60
27368;DHT22;14839;48.106;11.618;2023-11-19T15:39:33;12.80;94.60
27368;DHT22;14839;48.106;11.618;2023-11-19T15:42:01;12.80;94.60
27368;DHT22;14839;48.106;11.618;2023-11-19T15:44:27;12.70;94.60
27368;DHT22;14839;48.106;11.618;2023-11-19T15:46:53;12.60;94.60
27368;DHT22;14839;48.106;11.618;2023-11-19T15:49:19;12.50;94.60
27368;DHT22;14839;48.106;11.618;2023-11-19T15:51:44;12.50;94.60
27368;DHT22;14839;48.106;11.618;2023-11-19T15:54:11;12.40;94.60
27368;DHT22;14839;48.106;11.618;2023-11-19T15:56:36;12.30;94.60
27368;DHT22;14839;48.106;11.618;2023-11-19T15:59:02;12.30;94.60
27368;DHT22;14839;48.106;11.618;2023-11-19T16:01:29;12.30;94.60
27368;DHT22;14839;48.106;11.618;2023-11-19T16:03:56;12.30;94.60
27368;DHT22;14839;48.106;11.618;2023-11-19T16:06:21;12.30;94.60
27368;DHT22;14839;48.106;11.618;2023-11-19T16:08:48;12.40;94.60
27368;DHT22;14839;48.106;11.618;2023-11-19T16:11:15;12.40;94.60
27368;DHT22;14839;48.106;11.618;2023-11-19T16:13:42;12.40;94.60
27368;DHT22;14839;48.106;11.618;2023-11-19T16:16:09;12.40;94.60
27368;DHT22;14839;48.106;11.618;2023-11-19T16:18:35;12.40;94.60
27368;DHT22;14839;48.106;11.618;2023-11-19T16:21:00;12.50;94.60
27368;DHT22;14839;48.106;11.618;2023-11-19T16:23:26;12.50;94.60
27368;DHT22;14839;48.106;11.618;2023-11-19T16:25:53;12.50;94.60
27368;DHT22;14839;48.106;11.618;2023-11-19T16:28:18;12.40;94.60
27368;DHT22;14839;48.106;11.618;2023-11-19T16:30:44;12.40;94.60
27368;DHT22;14839;48.106;11.618;2023-11-19T16:33:10;12.30;94.60
27368;DHT22;14839;48.106;11.618;2023-11-19T16:35:35;12.30;94.60
27368;DHT22;14839;48.106;11.618;2023-11-19T16:38:02;12.20;94.60
27368;DHT22;14839;48.106;11.618;2023-11-19T16:40:28;12.20;94.60
27368;DHT22;14839;48.106;11.618;2023-11-19T16:42:54;12.30;94.60
27368;DHT22;14839;48.106;11.618;2023-11-19T16:45:20;12.20;94.60
27368;DHT22;14839;48.106;11.618;2023-11-19T16:47:47;12.10;94.60
27368;DHT22;14839;48.106;11.618;2023-11-19T16:50:13;12.20;94.60
27368;DHT22;14839;48.106;11.618;2023-11-19T16:52:41;12.10;94.60
27368;DHT22;14839;48.106;11.618;2023-11-19T16:55:07;12.10;94.60
27368;DHT22;14839;48.106;11.618;2023-11-19T16:57:45;12.00;94.60
27368;DHT22;14839;48.106;11.618;2023-11-19T17:00:15;12.00;94.60
27368;DHT22;14839;48.106;11.618;2023-11-19T17:02:40;12.00;94.60
27368;DHT22;14839;48.106;11.618;2023-11-19T17:05:11;12.00;94.60
27368;DHT22;14839;48.106;11.618;2023-11-19T17:07:37;12.00;94.60
27368;DHT22;14839;48.106;11.618;2023-11-19T17:10:03;12.00;94.60
27368;DHT22;14839;48.106;11.618;2023-11-19T17:12:32;12.00;94.60
27368;DHT22;14839;48.106;11.618;2023-11-19T17:14:57;12.00;94.60
27368;DHT22;14839;48.106;11.618;2023-11-19T17:17:33;12.00;94.60
27368;DHT22;14839;48.106;11.618;2023-11-19T17:20:01;12.00;94.60
27368;DHT22;14839;48.106;11.618;2023-11-19T17:22:32;12.00;94.60
27368;DHT22;14839;48.106;11.618;2023-11-19T17:25:00;12.00;94.60
27368;DHT22;14839;48.106;11.618;2023-11-19T17:27:26;12.10;94.60
27368;DHT22;14839;48.106;11.618;2023-11-19T17:29:54;12.10;94.60
27368;DHT22;14839;48.106;11.618;2023-11-19T17:32:20;12.00;94.60
27368;DHT22;14839;48.106;11.618;2023-11-19T17:34:46;12.00;94.60
27368;DHT22;14839;48.106;11.618;2023-11-19T17:37:12;11.90;94.60
27368;DHT22;14839;48.106;11.618;2023-11-19T17:39:38;11.90;94.60
27368;DHT22;14839;48.106;11.618;2023-11-19T17:42:04;11.80;94.60
27368;DHT22;14839;48.106;11.618;2023-11-19T17:44:31;11.80;94.60
27368;DHT22;14839;48.106;11.618;2023-11-19T17:46:57;11.80;94.60
27368;DHT22;14839;48.106;11.618;2023-11-19T17:49:25;11.90;94.60
27368;DHT22;14839;48.106;11.618;2023-11-19T17:51:51;11.80;94.60
27368;DHT22;14839;48.106;11.618;2023-11-19T17:54:17;11.80;94.60
27368;DHT22;14839;48.106;11.618;2023-11-19T17:56:43;11.80;94.60
27368;DHT22;14839;48.106;11.618;2023-11-19T17:59:09;11.80;94.60
27368;DHT22;14839;48.106;11.618;2023-11-19T18:01:34;11.80;94.60
27368;DHT22;14839;48.106;11.618;2023-11-19T18:04:01;11.80;94.60
27368;DHT22;14839;48.106;11.618;2023-11-19T18:06:27;11.80;94.60
27368;DHT22;14839;48.106;11.618;2023-11-19T18:08:53;11.80;94.60
27368;DHT22;14839;48.106;11.618;2023-11-19T18:11:18;11.80;94.60
27368;DHT22;14839;48.106;11.618;2023-11-19T18:13:45;11.80;94.60
27368;DHT22;14839;48.106;11.618;2023-11-19T18:16:11;11.80;94.60
27368;DHT22;14839;48.106;11.618;2023-11-19T18:18:40;11.80;94.60
27368;DHT22;14839;48.106;11.618;2023-11-19T18:21:05;11.90;94.60
27368;DHT22;14839;48.106;11.618;2023-11-19T18:23:32;11.90;94.60
27368;DHT22;14839;48.106;11.618;2023-11-19T18:25:58;11.90;94.60
27368;DHT22;14839;48.106;11.618;2023-11-19T18:28:23;11.90;94.60
27368;DHT22;14839;48.106;11.618;2023-11-19T18:30:51;11.90;94.60
27368;DHT22;14839;48.106;11.618;2023-11-19T18:33:17;11.90;94.60
27368;DHT22;14839;48.106;11.618;2023-11-19T18:35:42;11.90;94.60
27368;DHT22;14839;48.106;11.618;2023-11-19T18:38:08;11.80;94.60
27368;DHT22;14839;48.106;11.618;2023-11-19T18:40:34;11.80;94.60
27368;DHT22;14839;48.106;11.618;2023-11-19T18:43:00;11.80;94.60
27368;DHT22;14839;48.106;11.618;2023-11-19T18:45:26;11.80;94.60
27368;DHT22;14839;48.106;11.618;2023-11-19T18:47:51;11.80;94.60
27368;DHT22;14839;48.106;11.618;2023-11-19T18:50:17;11.80;94.60
27368;DHT22;14839;48.106;11.618;2023-11-19T18:52:43;11.80;94.60
27368;DHT22;14839;48.106;11.618;2023-11-19T18:55:09;11.80;94.60
27368;DHT22;14839;48.106;11.618;2023-11-19T18:57:35;11.80;94.60
27368;DHT22;14839;48.106;11.618;2023-11-19T19:00:01;11.70;94.60
27368;DHT22;14839;48.106;11.618;2023-11-19T19:02:36;11.70;94.60
27368;DHT22;14839;48.106;11.618;2023-11-19T19:05:03;11.80;94.60
27368;DHT22;14839;48.106;11.618;2023-11-19T19:07:29;11.80;94.60
27368;DHT22;14839;48.106;11.618;2023-11-19T19:09:54;11.80;94.60
27368;DHT22;14839;48.106;11.618;2023-11-19T19:12:21;11.80;94.60
27368;DHT22;14839;48.106;11.618;2023-11-19T19:14:47;11.70;94.60
27368;DHT22;14839;48.106;11.618;2023-11-19T19:17:13;11.70;94.60
27368;DHT22;14839;48.106;11.618;2023-11-19T19:19:40;11.70;94.60
27368;DHT22;14839;48.106;11.618;2023-11-19T19:22:06;11.70;94.60
27368;DHT22;14839;48.106;11.618;2023-11-19T19:24:31;11.70;94.60
27368;DHT22;14839;48.106;11.618;2023-11-19T19:26:57;11.70;94.60
27368;DHT22;14839;48.106;11.618;2023-11-19T19:29:22;11.60;94.60
27368;DHT22;14839;48.106;11.618;2023-11-19T19:31:49;11.60;94.60
27368;DHT22;14839;48.106;11.618;2023-11-19T19:34:15;11.60;94.60
27368;DHT22;14839;48.106;11.618;2023-11-19T19:36:40;11.60;94.60
27368;DHT22;14839;48.106;11.618;2023-11-19T19:39:06;11.50;94.60
27368;DHT22;14839;48.106;11.618;2023-11-19T19:41:49;11.50;94.60
27368;DHT22;14839;48.106;11.618;2023-11-19T19:44:16;11.50;94.60
27368;DHT22;14839;48.106;11.618;2023-11-19T19:46:43;11.50;94.60
27368;DHT22;14839;48.106;11.618;2023-11-19T19:49:09;11.40;94.60
27368;DHT22;14839;48.106;11.618;2023-11-19T19:51:34;11.50;94.60
27368;DHT22;14839;48.106;11.618;2023-11-19T19:54:00;11.50;94.60
27368;DHT22;14839;48.106;11.618;2023-11-19T19:56:26;11.40;94.60
27368;DHT22;14839;48.106;11.618;2023-11-19T19:58:51;11.40;94.60
27368;DHT22;14839;48.106;11.618;2023-11-19T20:01:17;11.40;94.60
27368;DHT22;14839;48.106;11.618;2023-11-19T20:03:42;11.40;94.60
27368;DHT22;14839;48.106;11.618;2023-11-19T20:06:08;11.40;94.60
27368;DHT22;14839;48.106;11.618;2023-11-19T20:08:37;11.40;94.60
27368;DHT22;14839;48.106;11.618;2023-11-19T20:11:04;11.40;94.60
27368;DHT22;14839;48.106;11.618;2023-11-19T20:13:30;11.40;94.60
27368;DHT22;14839;48.106;11.618;2023-11-19T20:15:57;11.40;94.60
27368;DHT22;14839;48.106;11.618;2023-11-19T20:18:23;11.40;94.60
27368;DHT22;14839;48.106;11.618;2023-11-19T20:20:49;11.30;94.60
27368;DHT22;14839;48.106;11.618;2023-11-19T20:23:15;11.30;94.60
27368;DHT22;14839;48.106;11.618;2023-11-19T20:25:40;11.20;94.60
27368;DHT22;14839;48.106;11.618;2023-11-19T20:28:07;11.30;94.60
27368;DHT22;14839;48.106;11.618;2023-11-19T20:30:33;11.30;94.60
27368;DHT22;14839;48.106;11.618;2023-11-19T20:32:59;11.40;94.60
27368;DHT22;14839;48.106;11.618;2023-11-19T20:35:25;11.40;94.60
27368;DHT22;14839;48.106;11.618;2023-11-19T20:37:50;11.40;94.60
27368;DHT22;14839;48.106;11.618;2023-11-19T20:40:16;11.40;94.60
27368;DHT22;14839;48.106;11.618;2023-11-19T20:42:42;11.40;94.60